createdAt,value
2023-05-15T00:01:07.849Z,57.17
2023-05-15T00:03:38.961Z,56.98
2023-05-15T00:06:10.362Z,57.42
2023-05-15T00:08:41.556Z,58.51
2023-05-15T00:11:13.708Z,59.73
2023-05-15T00:13:55.519Z,60.83
2023-05-15T00:16:28.148Z,61.45
2023-05-15T00:18:59.085Z,61.22
2023-05-15T00:21:29.980Z,60.76
2023-05-15T00:24:18.132Z,60.79
2023-05-15T00:26:56.578Z,61.21
2023-05-15T00:29:27.688Z,62.24
2023-05-15T00:31:59.804Z,64.28
2023-05-15T00:34:30.358Z,66.97
2023-05-15T00:37:01.785Z,69.56
2023-05-15T00:39:32.118Z,71.61
2023-05-15T00:42:06.516Z,74.02
2023-05-15T00:44:37.220Z,75.08
2023-05-15T00:47:13.299Z,76.21
2023-05-15T00:49:47.258Z,76.85
2023-05-15T00:52:18.469Z,76.79
2023-05-15T00:54:49.319Z,77.63
2023-05-15T00:57:21.051Z,77.75
2023-05-15T00:59:54.901Z,79.05
2023-05-15T01:02:27.657Z,79.57
2023-05-15T01:04:58.378Z,79.41
2023-05-15T01:07:31.762Z,79.59
2023-05-15T01:10:05.785Z,79.04
2023-05-15T01:12:41.669Z,79.18
2023-05-15T01:15:13.341Z,79.06
2023-05-15T01:17:52.108Z,79.52
2023-05-15T01:20:28.067Z,79.22
2023-05-15T01:23:09.169Z,78.67
2023-05-15T01:26:10.313Z,78.60
2023-05-15T01:28:48.257Z,78.88
2023-05-15T01:31:22.214Z,77.79
2023-05-15T01:33:59.197Z,78.44
2023-05-15T01:36:39.137Z,77.90
2023-05-15T01:39:11.910Z,78.97
2023-05-15T01:41:47.877Z,78.65
2023-05-15T01:44:24.929Z,78.40
2023-05-15T01:47:09.929Z,78.38
2023-05-15T01:49:43.168Z,78.09
2023-05-15T01:52:17.598Z,78.23
2023-05-15T01:54:52.916Z,78.16
2023-05-15T01:57:25.448Z,78.22
2023-05-15T02:00:01.595Z,78.00
2023-05-15T02:02:33.538Z,78.11
2023-05-15T02:05:05.775Z,77.32
2023-05-15T02:07:38.229Z,77.34
2023-05-15T02:10:11.721Z,77.32
2023-05-15T02:12:46.232Z,76.74
2023-05-15T02:15:22.552Z,76.23
2023-05-15T02:17:53.697Z,76.29
2023-05-15T02:20:24.841Z,75.32
2023-05-15T02:22:58.821Z,74.50
2023-05-15T02:25:40.558Z,74.35
2023-05-15T02:28:16.183Z,73.99
2023-05-15T02:30:56.584Z,73.02
2023-05-15T02:33:39.449Z,71.24
2023-05-15T02:36:21.002Z,70.63
2023-05-15T02:38:54.095Z,68.56
2023-05-15T02:41:25.885Z,68.88
2023-05-15T02:43:57.865Z,68.35
2023-05-15T02:46:33.701Z,68.45
2023-05-15T02:49:05.650Z,68.26
2023-05-15T02:51:38.964Z,68.37
2023-05-15T02:54:10.523Z,68.18
2023-05-15T02:56:41.180Z,67.57
2023-05-15T02:59:11.891Z,68.06
2023-05-15T03:01:44.745Z,69.21
2023-05-15T03:04:15.522Z,69.43
2023-05-15T03:06:46.558Z,68.78
2023-05-15T03:09:17.566Z,68.60
2023-05-15T03:11:48.139Z,68.85
2023-05-15T03:14:18.960Z,68.50
2023-05-15T03:16:51.250Z,67.77
2023-05-15T03:19:25.024Z,67.21
2023-05-15T03:21:57.264Z,67.79
2023-05-15T03:24:28.114Z,67.06
2023-05-15T03:26:58.765Z,66.23
2023-05-15T03:29:29.363Z,66.89
2023-05-15T03:32:01.613Z,66.86
2023-05-15T03:34:32.303Z,67.48
2023-05-15T03:37:07.727Z,68.31
2023-05-15T03:39:42.926Z,68.59
2023-05-15T03:42:13.389Z,69.81
2023-05-15T03:44:50.678Z,70.26
2023-05-15T03:47:28.530Z,70.65
2023-05-15T03:50:13.444Z,70.86
2023-05-15T03:52:44.026Z,70.90
2023-05-15T03:55:14.626Z,71.72
2023-05-15T03:57:45.185Z,72.56
2023-05-15T04:00:19.247Z,73.44
2023-05-15T04:02:52.168Z,74.63
2023-05-15T04:05:28.934Z,76.00
2023-05-15T04:07:59.876Z,74.27
2023-05-15T04:10:30.691Z,74.23
2023-05-15T04:13:01.683Z,74.26
2023-05-15T04:15:32.571Z,75.29
2023-05-15T04:18:05.160Z,76.02
2023-05-15T04:20:36.290Z,76.65
2023-05-15T04:23:07.307Z,77.01
2023-05-15T04:25:45.282Z,77.71
2023-05-15T04:28:16.089Z,78.37
2023-05-15T04:30:47.523Z,79.79
2023-05-15T04:33:20.841Z,81.39
2023-05-15T04:35:51.734Z,82.67
2023-05-15T04:38:22.412Z,83.92
2023-05-15T04:40:52.939Z,84.60
2023-05-15T04:43:24.867Z,85.51
2023-05-15T04:45:55.841Z,85.75
2023-05-15T04:48:28.129Z,86.39
2023-05-15T04:50:58.924Z,87.02
2023-05-15T04:53:29.988Z,86.69
2023-05-15T04:56:00.537Z,87.95
2023-05-15T04:58:34.233Z,87.78
2023-05-15T05:01:05.383Z,88.33
2023-05-15T05:03:39.011Z,89.14
2023-05-15T05:06:10.092Z,89.22
2023-05-15T05:08:41.284Z,88.61
2023-05-15T05:11:11.870Z,89.22
2023-05-15T05:13:43.392Z,89.03
2023-05-15T05:16:19.960Z,89.44
2023-05-15T05:18:52.300Z,89.12
2023-05-15T05:21:22.798Z,89.36
2023-05-15T05:23:53.550Z,89.91
2023-05-15T05:26:24.464Z,89.20
2023-05-15T05:28:57.795Z,89.24
2023-05-15T05:31:28.447Z,88.88
2023-05-15T05:34:00.748Z,88.41
2023-05-15T05:36:31.625Z,88.33
2023-05-15T05:39:02.596Z,88.60
2023-05-15T05:41:34.033Z,88.98
2023-05-15T05:44:07.396Z,89.38
2023-05-15T05:47:08.576Z,89.12
2023-05-15T05:49:41.383Z,88.97
2023-05-15T05:52:12.112Z,87.99
2023-05-15T05:54:42.770Z,87.08
2023-05-15T05:57:14.709Z,87.33
2023-05-15T05:59:46.716Z,87.01
2023-05-15T06:02:18.080Z,87.11
2023-05-15T06:04:50.666Z,86.66
2023-05-15T06:07:21.369Z,85.33
2023-05-15T06:09:51.999Z,83.91
2023-05-15T06:12:23.178Z,82.70
2023-05-15T06:14:54.423Z,81.74
2023-05-15T06:17:27.511Z,82.36
2023-05-15T06:20:05.792Z,82.51
2023-05-15T06:22:37.569Z,82.55
2023-05-15T06:25:14.812Z,82.60
2023-05-15T06:27:48.447Z,82.19
2023-05-15T06:30:20.060Z,82.46
2023-05-15T06:32:53.811Z,82.03
2023-05-15T06:35:26.524Z,81.41
2023-05-15T06:37:58.535Z,81.17
2023-05-15T06:40:29.818Z,80.87
2023-05-15T06:43:02.386Z,81.19
2023-05-15T06:45:33.005Z,81.47
2023-05-15T06:48:03.797Z,81.17
2023-05-15T06:50:36.073Z,80.49
2023-05-15T06:53:06.969Z,81.01
2023-05-15T06:55:39.012Z,80.48
2023-05-15T06:58:09.592Z,81.05
2023-05-15T07:00:40.169Z,81.32
2023-05-15T07:03:10.932Z,81.89
2023-05-15T07:05:43.279Z,82.42
2023-05-15T07:08:16.452Z,83.10
2023-05-15T07:10:46.989Z,83.85
2023-05-15T07:13:25.427Z,84.82
2023-05-15T07:15:58.883Z,85.21
2023-05-15T07:18:29.630Z,85.43
2023-05-15T07:21:03.142Z,85.01
2023-05-15T07:23:34.688Z,84.93
2023-05-15T07:26:14.116Z,84.74
2023-05-15T07:28:48.544Z,85.47
2023-05-15T07:31:29.114Z,85.30
2023-05-15T07:34:06.325Z,85.41
2023-05-15T07:37:44.886Z,85.27
2023-05-15T07:40:18.768Z,86.34
2023-05-15T07:42:50.415Z,86.26
2023-05-15T07:45:22.428Z,87.35
2023-05-15T07:47:54.162Z,88.15
2023-05-15T07:50:25.622Z,89.12
2023-05-15T07:52:56.986Z,90.40
2023-05-15T07:55:29.981Z,91.48
2023-05-15T07:58:01.719Z,91.83
2023-05-15T08:00:33.413Z,91.94
2023-05-15T08:03:05.037Z,91.52
2023-05-15T08:05:36.700Z,91.68
2023-05-15T08:08:08.152Z,91.40
2023-05-15T08:10:41.179Z,92.04
2023-05-15T08:13:12.722Z,92.73
2023-05-15T08:15:44.401Z,93.22
2023-05-15T08:18:17.363Z,93.71
2023-05-15T08:20:49.444Z,93.93
2023-05-15T08:23:21.456Z,94.39
2023-05-15T08:25:55.387Z,94.36
2023-05-15T08:28:27.294Z,94.47
2023-05-15T08:30:59.184Z,94.63
2023-05-15T08:33:30.926Z,94.99
2023-05-15T08:36:04.375Z,95.03
2023-05-15T08:38:35.932Z,95.14
2023-05-15T08:41:14.623Z,95.33
2023-05-15T08:43:47.290Z,95.37
2023-05-15T08:46:18.830Z,95.52
2023-05-15T08:48:51.079Z,95.73
2023-05-15T08:51:22.367Z,95.62
2023-05-15T08:53:54.061Z,95.74
2023-05-15T08:56:26.285Z,96.08
2023-05-15T08:58:57.332Z,95.51
2023-05-15T09:01:28.679Z,96.06
2023-05-15T09:03:59.804Z,95.47
2023-05-15T09:06:31.777Z,95.52
2023-05-15T09:09:04.334Z,95.26
2023-05-15T09:11:39.536Z,95.03
2023-05-15T09:14:15.410Z,95.48
2023-05-15T09:16:51.133Z,95.90
2023-05-15T09:19:23.328Z,96.49
2023-05-15T09:21:54.102Z,96.38
2023-05-15T09:24:25.972Z,97.15
2023-05-15T09:27:11.678Z,97.11
2023-05-15T09:29:42.582Z,97.18
2023-05-15T09:32:16.961Z,97.06
2023-05-15T09:34:48.058Z,97.00
2023-05-15T09:37:32.814Z,97.05
2023-05-15T09:40:17.308Z,97.52
2023-05-15T09:42:55.196Z,97.27
2023-05-15T09:45:27.224Z,97.86
2023-05-15T09:48:01.705Z,98.14
2023-05-15T09:50:38.519Z,98.82
2023-05-15T09:56:37.389Z,99.08
2023-05-15T09:59:15.295Z,99.09
2023-05-15T10:01:49.259Z,99.65
2023-05-15T10:04:20.076Z,99.38
2023-05-15T10:06:59.154Z,99.55
2023-05-15T10:09:34.744Z,99.71
2023-05-15T10:12:06.947Z,99.45
2023-05-15T10:14:39.513Z,99.08
2023-05-15T10:17:11.418Z,98.90
2023-05-15T10:19:56.599Z,99.11
2023-05-15T10:22:32.711Z,99.33
2023-05-15T10:25:11.230Z,99.48
2023-05-15T10:27:43.372Z,99.50
2023-05-15T10:30:19.351Z,99.82
2023-05-15T10:32:52.708Z,99.68
2023-05-15T10:35:24.297Z,99.30
2023-05-15T10:37:55.308Z,99.34
2023-05-15T10:40:27.603Z,99.76
2023-05-15T10:43:02.135Z,99.73
2023-05-15T10:45:37.636Z,100.00
2023-05-15T10:48:13.150Z,99.92
2023-05-15T10:50:43.801Z,100.00
2023-05-15T10:53:14.529Z,100.00
2023-05-15T10:55:49.234Z,100.00
2023-05-15T10:58:25.944Z,100.00
2023-05-15T11:00:58.270Z,100.00
2023-05-15T11:03:49.113Z,100.00
2023-05-15T11:06:31.824Z,100.00
2023-05-15T11:09:36.850Z,100.00
2023-05-15T11:12:10.393Z,100.00
2023-05-15T11:14:43.179Z,100.00
2023-05-15T11:17:17.726Z,100.00
2023-05-15T11:20:01.708Z,100.00
2023-05-15T11:22:36.900Z,100.00
2023-05-15T11:25:10.383Z,100.00
2023-05-15T11:27:45.712Z,100.00
2023-05-15T11:30:21.741Z,100.00
2023-05-15T11:32:58.099Z,100.00
2023-05-15T11:35:31.307Z,100.00
2023-05-15T11:38:03.182Z,100.00
2023-05-15T11:40:35.343Z,100.00
2023-05-15T11:43:09.213Z,100.00
2023-05-15T11:45:40.943Z,100.00
2023-05-15T11:48:18.734Z,100.00
2023-05-15T11:50:49.706Z,100.00
2023-05-15T11:53:22.058Z,100.00
2023-05-15T11:55:57.953Z,100.00
2023-05-15T11:58:29.303Z,100.00
2023-05-15T12:01:01.498Z,100.00
2023-05-15T12:03:37.442Z,100.00
2023-05-15T12:06:08.761Z,100.00
2023-05-15T12:08:41.209Z,100.00
2023-05-15T12:11:12.127Z,99.60
2023-05-15T12:13:43.033Z,99.50
2023-05-15T12:16:13.582Z,99.41
2023-05-15T12:18:45.839Z,98.99
2023-05-15T12:21:16.519Z,99.17
2023-05-15T12:26:31.106Z,98.01
2023-05-15T12:29:01.809Z,97.33
2023-05-15T12:31:32.658Z,96.75
2023-05-15T12:34:05.340Z,96.39
2023-05-15T12:36:36.108Z,96.81
2023-05-15T12:39:10.206Z,97.10
2023-05-15T12:41:41.346Z,97.17
2023-05-15T12:44:20.359Z,97.12
2023-05-15T12:46:51.504Z,97.13
2023-05-15T12:49:28.179Z,97.28
2023-05-15T12:51:58.727Z,97.80
2023-05-15T12:54:29.338Z,97.46
2023-05-15T12:57:01.450Z,96.76
2023-05-15T12:59:33.998Z,97.65
2023-05-15T13:02:04.814Z,97.64
2023-05-15T13:04:38.223Z,98.17
2023-05-15T13:07:09.311Z,98.50
2023-05-15T13:09:43.152Z,98.66
2023-05-15T13:12:15.530Z,98.74
2023-05-15T13:14:46.102Z,98.34
2023-05-15T13:17:18.167Z,98.38
2023-05-15T13:19:56.366Z,98.38
2023-05-15T13:22:28.849Z,98.49
2023-05-15T13:25:00.427Z,98.54
2023-05-15T13:27:33.771Z,99.24
2023-05-15T13:30:04.303Z,99.58
2023-05-15T13:32:37.130Z,99.55
2023-05-15T13:35:10.916Z,99.85
2023-05-15T13:37:44.224Z,99.58
2023-05-15T13:40:15.748Z,99.46
2023-05-15T13:42:47.111Z,99.18
2023-05-15T13:45:20.856Z,98.76
2023-05-15T13:47:51.859Z,98.69
2023-05-15T13:50:31.106Z,99.02
2023-05-15T13:53:01.734Z,98.81
2023-05-15T13:55:32.628Z,99.22
2023-05-15T13:58:05.053Z,99.00
2023-05-15T14:00:38.283Z,99.02
2023-05-15T14:03:12.592Z,98.77
2023-05-15T14:05:49.152Z,98.85
2023-05-15T14:08:21.292Z,98.66
2023-05-15T14:10:51.857Z,98.72
2023-05-15T14:13:22.557Z,98.92
2023-05-15T14:15:54.451Z,98.75
2023-05-15T14:18:26.190Z,98.54
2023-05-15T14:20:58.610Z,98.41
2023-05-15T14:23:29.460Z,98.38
2023-05-15T14:26:00.361Z,98.18
2023-05-15T14:28:30.981Z,97.70
2023-05-15T14:31:01.936Z,97.69
2023-05-15T14:33:32.675Z,97.28
2023-05-15T14:36:05.395Z,97.29
2023-05-15T14:38:36.704Z,97.76
2023-05-15T14:41:07.438Z,97.09
2023-05-15T14:43:38.081Z,97.04
2023-05-15T14:46:11.287Z,96.45
2023-05-15T14:48:42.226Z,96.54
2023-05-15T14:51:14.425Z,96.42
2023-05-15T14:53:45.367Z,96.17
2023-05-15T14:56:16.090Z,95.65
2023-05-15T14:58:47.469Z,95.72
2023-05-15T15:01:18.243Z,95.39
2023-05-15T15:03:48.794Z,95.82
2023-05-15T15:06:21.100Z,95.98
2023-05-15T15:08:51.882Z,95.68
2023-05-15T15:11:22.446Z,95.67
2023-05-15T15:13:53.020Z,95.05
2023-05-15T15:16:23.722Z,94.55
2023-05-15T15:18:54.500Z,94.78
2023-05-15T15:21:26.926Z,94.94
2023-05-15T15:23:57.688Z,94.80
2023-05-15T15:26:31.087Z,95.42
2023-05-15T15:29:02.294Z,95.08
2023-05-15T15:31:33.350Z,95.21
2023-05-15T15:34:05.605Z,95.29
2023-05-15T15:36:39.553Z,95.38
2023-05-15T15:39:10.613Z,95.57
2023-05-15T15:42:16.822Z,95.83
2023-05-15T15:44:49.323Z,95.90
2023-05-15T15:47:22.129Z,95.53
2023-05-15T15:49:53.930Z,95.34
2023-05-15T15:52:26.093Z,95.45
2023-05-15T15:54:56.752Z,95.47
2023-05-15T15:57:27.921Z,95.59
2023-05-15T15:59:58.606Z,95.38
2023-05-15T16:02:29.252Z,95.41
2023-05-15T16:05:02.176Z,95.39
2023-05-15T16:07:34.354Z,95.46
2023-05-15T16:10:12.590Z,95.65
2023-05-15T16:12:57.866Z,95.65
2023-05-15T16:15:28.646Z,95.92
2023-05-15T16:17:59.294Z,95.39
2023-05-15T16:20:30.033Z,95.30
2023-05-15T16:23:02.262Z,95.74
2023-05-15T16:25:32.853Z,95.95
2023-05-15T16:28:03.287Z,96.07
2023-05-15T16:30:47.405Z,95.84
2023-05-15T16:33:19.994Z,95.93
2023-05-15T16:35:50.840Z,95.93
2023-05-15T16:38:23.680Z,96.45
2023-05-15T16:40:54.210Z,96.37
2023-05-15T16:43:24.695Z,96.40
2023-05-15T16:45:55.291Z,96.63
2023-05-15T16:48:27.168Z,96.63
2023-05-15T16:50:57.719Z,96.21
2023-05-15T16:53:30.184Z,96.61
2023-05-15T16:56:01.076Z,96.03
2023-05-15T16:58:31.875Z,95.81
2023-05-15T17:01:02.355Z,95.69
2023-05-15T17:03:33.209Z,96.09
2023-05-15T17:06:03.814Z,95.85
2023-05-15T17:08:35.999Z,96.16
2023-05-15T17:11:07.882Z,95.81
2023-05-15T17:13:38.415Z,95.95
2023-05-15T17:16:09.539Z,95.30
2023-05-15T17:18:42.884Z,95.13
2023-05-15T17:21:13.488Z,95.40
2023-05-15T17:23:45.609Z,95.17
2023-05-15T17:26:16.615Z,95.35
2023-05-15T17:28:47.160Z,95.84
2023-05-15T17:31:19.694Z,96.18
2023-05-15T17:33:50.296Z,96.33
2023-05-15T17:36:20.814Z,96.65
2023-05-15T17:38:53.129Z,96.39
2023-05-15T17:41:24.035Z,95.99
2023-05-15T17:43:54.636Z,96.03
2023-05-15T17:46:25.094Z,95.51
2023-05-15T17:48:55.645Z,95.56
2023-05-15T17:51:29.128Z,95.52
2023-05-15T17:54:01.490Z,95.67
2023-05-15T17:56:32.086Z,95.98
2023-05-15T17:59:02.653Z,96.38
2023-05-15T18:01:36.048Z,96.24
2023-05-15T18:04:06.817Z,96.29
2023-05-15T18:06:37.664Z,96.17
2023-05-15T18:09:10.195Z,96.20
2023-05-15T18:11:40.680Z,96.09
2023-05-15T18:14:11.824Z,96.75
2023-05-15T18:16:42.518Z,96.73
2023-05-15T18:19:13.218Z,96.90
2023-05-15T18:21:43.865Z,96.55
2023-05-15T18:24:16.127Z,96.74
2023-05-15T18:26:46.898Z,97.15
2023-05-15T18:29:17.362Z,97.53
2023-05-15T18:31:53.104Z,97.08
2023-05-15T18:34:23.725Z,97.50
2023-05-15T18:36:54.198Z,96.93
2023-05-15T18:39:26.327Z,96.99
2023-05-15T18:41:58.107Z,96.84
2023-05-15T18:44:29.608Z,96.87
2023-05-15T18:47:00.151Z,96.60
2023-05-15T18:49:31.627Z,96.58
2023-05-15T18:52:02.217Z,96.83
2023-05-15T18:54:34.367Z,96.64
2023-05-15T18:57:05.010Z,96.39
2023-05-15T18:59:35.571Z,96.71
2023-05-15T19:02:06.199Z,96.52
2023-05-15T19:04:36.810Z,97.37
2023-05-15T19:07:07.458Z,97.12
2023-05-15T19:09:39.702Z,97.26
2023-05-15T19:12:10.494Z,97.13
2023-05-15T19:14:40.997Z,97.38
2023-05-15T19:17:14.608Z,97.53
2023-05-15T19:19:45.844Z,97.62
2023-05-15T19:22:16.576Z,97.33
2023-05-15T19:24:48.707Z,97.07
2023-05-15T19:27:19.161Z,97.37
2023-05-15T19:29:50.579Z,97.36
2023-05-15T19:32:21.420Z,97.19
2023-05-15T19:34:52.157Z,96.85
2023-05-15T19:37:22.741Z,96.75
2023-05-15T19:39:57.371Z,96.23
2023-05-15T19:42:27.870Z,96.04
2023-05-15T19:44:58.533Z,96.38
2023-05-15T19:47:29.119Z,96.33
2023-05-15T19:49:59.838Z,95.65
2023-05-15T19:52:30.386Z,96.03
2023-05-15T19:55:02.643Z,96.33
2023-05-15T19:57:33.185Z,96.52
2023-05-15T20:00:04.553Z,96.74
2023-05-15T20:02:35.417Z,96.53
2023-05-15T20:05:05.980Z,96.52
2023-05-15T20:07:36.642Z,96.65
2023-05-15T20:10:10.121Z,96.88
2023-05-15T20:12:43.777Z,96.75
2023-05-15T20:15:16.639Z,96.91
2023-05-15T20:17:47.525Z,97.55
2023-05-15T20:20:21.467Z,97.20
2023-05-15T20:22:52.012Z,97.38
2023-05-15T20:25:24.485Z,97.74
2023-05-15T20:27:57.800Z,97.93
2023-05-15T20:30:29.858Z,97.59
2023-05-15T20:33:00.545Z,97.52
2023-05-15T20:35:31.940Z,97.47
2023-05-15T20:38:03.232Z,97.58
2023-05-15T20:40:35.536Z,97.10
2023-05-15T20:43:06.102Z,97.28
2023-05-15T20:45:36.892Z,97.55
2023-05-15T20:48:07.749Z,97.42
2023-05-15T20:50:38.278Z,97.45
2023-05-15T20:53:08.992Z,97.54
2023-05-15T20:55:41.341Z,97.69
2023-05-15T20:58:11.904Z,97.56
2023-05-15T21:00:42.512Z,97.53
2023-05-15T21:03:14.067Z,97.69
2023-05-15T21:05:44.757Z,97.52
2023-05-15T21:08:15.310Z,96.70
2023-05-15T21:10:51.847Z,96.88
2023-05-15T21:13:22.334Z,96.34
2023-05-15T21:15:53.474Z,96.71
2023-05-15T21:18:24.608Z,96.95
2023-05-15T21:20:55.593Z,96.79
2023-05-15T21:23:26.089Z,96.37
2023-05-15T21:25:58.411Z,95.52
2023-05-15T21:28:29.007Z,95.56
2023-05-15T21:31:02.315Z,95.88
2023-05-15T21:33:32.853Z,95.25
2023-05-15T21:36:04.192Z,95.65
2023-05-15T21:38:34.790Z,96.13
2023-05-15T21:41:07.063Z,96.07
2023-05-15T21:43:37.732Z,96.09
2023-05-15T21:46:08.270Z,96.51
2023-05-15T21:48:38.824Z,97.01
2023-05-15T21:51:09.442Z,97.32
2023-05-15T21:53:40.010Z,97.66
2023-05-15T21:56:12.424Z,96.83
2023-05-15T21:58:46.451Z,96.79
2023-05-15T22:01:18.770Z,95.63
2023-05-15T22:03:49.720Z,94.05
2023-05-15T22:06:23.094Z,93.90
2023-05-15T22:08:53.662Z,91.91
2023-05-15T22:11:25.875Z,90.46
2023-05-15T22:13:56.833Z,89.61
2023-05-15T22:16:27.595Z,90.16
2023-05-15T22:18:58.465Z,90.80
2023-05-15T22:21:29.137Z,91.30
2023-05-15T22:24:04.278Z,91.05
2023-05-15T22:26:36.507Z,91.29
2023-05-15T22:29:07.073Z,90.74
2023-05-15T22:31:37.699Z,91.31
2023-05-15T22:34:08.173Z,91.47
2023-05-15T22:36:38.830Z,90.89
2023-05-15T22:39:10.094Z,91.49
2023-05-15T22:41:42.309Z,91.83
2023-05-15T22:44:20.612Z,92.04
2023-05-15T22:46:51.552Z,90.82
2023-05-15T22:49:24.741Z,91.15
2023-05-15T22:51:57.859Z,89.95
2023-05-15T22:54:28.714Z,89.75
2023-05-15T22:57:01.258Z,89.89
2023-05-15T22:59:34.958Z,89.59
2023-05-15T23:02:05.796Z,89.88
2023-05-15T23:04:37.201Z,90.08
2023-05-15T23:07:08.038Z,90.08
2023-05-15T23:09:40.623Z,90.64
2023-05-15T23:12:13.266Z,89.81
2023-05-15T23:14:47.334Z,89.04
2023-05-15T23:17:19.482Z,89.56
2023-05-15T23:19:52.415Z,89.39
2023-05-15T23:22:24.095Z,89.56
2023-05-15T23:24:55.691Z,89.73
2023-05-15T23:27:28.988Z,90.15
2023-05-15T23:30:00.577Z,90.26
2023-05-15T23:32:38.411Z,90.13
2023-05-15T23:35:11.081Z,89.85
2023-05-15T23:37:41.787Z,88.94
2023-05-15T23:40:13.473Z,88.11
2023-05-15T23:42:45.773Z,87.74
2023-05-15T23:45:16.532Z,87.30
2023-05-15T23:47:47.328Z,86.33
2023-05-15T23:50:19.491Z,85.33
2023-05-15T23:52:50.129Z,84.18
2023-05-15T23:55:20.757Z,84.56
2023-05-15T23:58:00.150Z,84.80
